createdAt,value
2019-03-28T00:01:15.609Z,24.17
2019-03-28T00:03:19.345Z,20.80
2019-03-28T00:05:23.145Z,17.00
2019-03-28T00:07:26.737Z,18.23
2019-03-28T00:09:30.421Z,25.67
2019-03-28T00:11:34.097Z,16.07
2019-03-28T00:13:37.771Z,22.07
2019-03-28T00:15:41.564Z,23.47
2019-03-28T00:17:45.139Z,19.40
2019-03-28T00:19:48.790Z,25.20
2019-03-28T00:21:52.525Z,16.63
2019-03-28T00:23:57.880Z,16.40
2019-03-28T00:26:01.582Z,18.33
2019-03-28T00:28:05.297Z,14.67
2019-03-28T00:30:09.331Z,17.20
2019-03-28T00:32:13.030Z,19.97
2019-03-28T00:34:16.623Z,30.00
2019-03-28T00:36:20.440Z,15.97
2019-03-28T00:38:24.087Z,24.50
2019-03-28T00:40:27.789Z,17.40
2019-03-28T00:42:31.378Z,15.83
2019-03-28T00:44:35.046Z,13.10
2019-03-28T00:46:38.741Z,14.93
2019-03-28T00:48:42.496Z,18.17
2019-03-28T00:50:46.187Z,17.27
2019-03-28T00:52:49.792Z,16.13
2019-03-28T00:54:53.399Z,17.10
2019-03-28T00:56:57.116Z,18.17
2019-03-28T00:59:00.729Z,23.80
2019-03-28T01:01:05.109Z,15.70
2019-03-28T01:03:08.896Z,18.37
2019-03-28T01:05:12.959Z,18.13
2019-03-28T01:07:16.981Z,20.33
2019-03-28T01:09:21.415Z,18.47
2019-03-28T01:11:25.060Z,20.73
2019-03-28T01:13:28.883Z,26.60
2019-03-28T01:15:32.575Z,20.93
2019-03-28T01:17:36.251Z,14.40
2019-03-28T01:19:42.130Z,11.70
2019-03-28T01:21:45.825Z,12.87
2019-03-28T01:23:49.507Z,17.53
2019-03-28T01:25:53.316Z,17.87
2019-03-28T01:27:57.140Z,16.53
2019-03-28T01:30:00.914Z,19.27
2019-03-28T01:32:04.665Z,16.90
2019-03-28T01:34:10.292Z,15.47
2019-03-28T01:36:13.765Z,16.20
2019-03-28T01:38:17.436Z,29.47
2019-03-28T01:40:21.207Z,21.17
2019-03-28T01:42:25.042Z,16.43
2019-03-28T01:44:28.686Z,16.43
2019-03-28T01:46:32.326Z,15.80
2019-03-28T01:48:35.988Z,18.40
2019-03-28T01:50:39.741Z,19.07
2019-03-28T01:52:43.428Z,20.73
2019-03-28T01:54:47.070Z,20.20
2019-03-28T01:56:50.782Z,21.93
2019-03-28T01:58:55.172Z,22.83
2019-03-28T02:00:58.943Z,22.90
2019-03-28T02:03:06.830Z,21.13
2019-03-28T02:05:07.999Z,13.53
2019-03-28T02:07:11.670Z,16.30
2019-03-28T02:09:15.280Z,16.07
2019-03-28T02:11:19.019Z,20.53
2019-03-28T02:13:22.735Z,18.70
2019-03-28T02:15:26.496Z,14.07
2019-03-28T02:17:30.174Z,14.00
2019-03-28T02:19:33.825Z,19.03
2019-03-28T02:21:37.557Z,17.20
2019-03-28T02:23:41.206Z,20.83
2019-03-28T02:25:44.909Z,18.00
2019-03-28T02:27:48.587Z,21.23
2019-03-28T02:29:52.306Z,16.47
2019-03-28T02:31:55.993Z,20.00
2019-03-28T02:33:59.590Z,18.07
2019-03-28T02:36:03.291Z,15.57
2019-03-28T02:38:06.966Z,24.10
2019-03-28T02:40:10.994Z,25.33
2019-03-28T02:42:14.814Z,22.50
2019-03-28T02:44:18.492Z,16.90
2019-03-28T02:46:22.767Z,17.60
2019-03-28T02:48:27.648Z,20.47
2019-03-28T02:50:31.594Z,15.43
2019-03-28T02:52:35.672Z,15.47
2019-03-28T02:54:39.275Z,17.53
2019-03-28T02:56:43.033Z,18.60
2019-03-28T02:58:46.683Z,21.73
2019-03-28T03:00:50.718Z,22.07
2019-03-28T03:02:54.356Z,25.00
2019-03-28T03:04:58.074Z,28.23
2019-03-28T03:07:01.777Z,28.33
2019-03-28T03:09:08.464Z,23.27
2019-03-28T03:11:12.147Z,14.47
2019-03-28T03:13:15.803Z,21.13
2019-03-28T03:15:19.745Z,18.73
2019-03-28T03:17:23.552Z,21.93
2019-03-28T03:19:27.229Z,18.43
2019-03-28T03:21:30.842Z,16.60
2019-03-28T03:23:34.593Z,16.53
2019-03-28T03:25:38.430Z,20.10
2019-03-28T03:27:57.144Z,20.00
2019-03-28T03:29:47.475Z,16.57
2019-03-28T03:31:51.194Z,21.43
2019-03-28T03:33:54.796Z,22.10
2019-03-28T03:35:58.476Z,19.80
2019-03-28T03:38:02.059Z,18.97
2019-03-28T03:40:08.361Z,22.60
2019-03-28T03:42:12.152Z,18.37
2019-03-28T03:44:16.157Z,17.50
2019-03-28T03:46:20.131Z,22.40
2019-03-28T03:48:23.699Z,21.43
2019-03-28T03:50:28.788Z,18.37
2019-03-28T03:52:32.430Z,19.37
2019-03-28T03:54:36.083Z,16.87
2019-03-28T03:56:39.724Z,21.00
2019-03-28T03:58:43.389Z,17.40
2019-03-28T04:00:47.014Z,16.40
2019-03-28T04:02:50.698Z,26.13
2019-03-28T04:04:56.667Z,26.90
2019-03-28T04:06:59.587Z,18.00
2019-03-28T04:09:04.624Z,16.97
2019-03-28T04:11:08.595Z,16.57
2019-03-28T04:13:13.985Z,23.50
2019-03-28T04:15:17.742Z,20.53
2019-03-28T04:17:21.744Z,17.60
2019-03-28T04:19:25.558Z,14.13
2019-03-28T04:21:29.517Z,18.97
2019-03-28T04:23:33.097Z,17.00
2019-03-28T04:25:36.754Z,20.50
2019-03-28T04:27:42.056Z,18.50
2019-03-28T04:29:45.717Z,21.50
2019-03-28T04:31:49.499Z,20.47
2019-03-28T04:33:53.181Z,18.50
2019-03-28T04:35:56.897Z,20.63
2019-03-28T04:38:00.661Z,20.13
2019-03-28T04:40:06.575Z,20.53
2019-03-28T04:42:11.983Z,20.87
2019-03-28T04:44:15.643Z,26.17
2019-03-28T04:46:19.321Z,18.00
2019-03-28T04:48:22.965Z,22.43
2019-03-28T04:50:26.627Z,18.10
2019-03-28T04:52:31.960Z,19.87
2019-03-28T04:54:36.711Z,26.13
2019-03-28T04:56:40.438Z,21.73
2019-03-28T04:58:45.807Z,18.23
2019-03-28T05:00:49.376Z,17.93
2019-03-28T05:02:53.064Z,23.63
2019-03-28T05:04:56.786Z,17.70
2019-03-28T05:07:01.655Z,20.77
2019-03-28T05:09:06.293Z,24.40
2019-03-28T05:11:10.070Z,23.57
2019-03-28T05:13:14.240Z,21.30
2019-03-28T05:15:20.380Z,19.83
2019-03-28T05:17:23.833Z,24.60
2019-03-28T05:19:27.422Z,22.17
2019-03-28T05:21:31.453Z,26.70
2019-03-28T05:23:35.272Z,26.10
2019-03-28T05:25:40.640Z,22.53
2019-03-28T05:27:44.963Z,25.10
2019-03-28T05:29:48.700Z,28.30
2019-03-28T05:31:52.516Z,26.07
2019-03-28T05:33:56.408Z,31.30
2019-03-28T05:36:00.312Z,19.70
2019-03-28T05:38:04.204Z,21.30
2019-03-28T05:40:08.686Z,25.93
2019-03-28T05:42:12.672Z,22.20
2019-03-28T05:44:16.688Z,24.33
2019-03-28T05:46:20.647Z,29.87
2019-03-28T05:48:24.522Z,28.13
2019-03-28T05:50:28.337Z,29.70
2019-03-28T05:52:32.468Z,21.17
2019-03-28T05:54:36.401Z,21.60
2019-03-28T05:56:40.303Z,21.00
2019-03-28T05:58:44.111Z,23.30
2019-03-28T06:00:51.154Z,27.80
2019-03-28T06:02:53.460Z,25.40
2019-03-28T06:04:57.362Z,29.93
2019-03-28T06:07:01.306Z,28.60
2019-03-28T06:09:07.085Z,28.10
2019-03-28T06:11:10.938Z,24.90
2019-03-28T06:13:14.767Z,28.53
2019-03-28T06:15:18.665Z,32.97
2019-03-28T06:17:22.642Z,30.00
2019-03-28T06:19:26.600Z,30.37
2019-03-28T06:21:30.518Z,26.87
2019-03-28T06:23:36.377Z,32.20
2019-03-28T06:25:41.029Z,29.83
2019-03-28T06:27:45.064Z,25.87
2019-03-28T06:29:48.855Z,27.03
2019-03-28T06:31:55.502Z,30.97
2019-03-28T06:33:58.250Z,25.73
2019-03-28T06:36:02.337Z,27.67
2019-03-28T06:38:06.442Z,32.50
2019-03-28T06:40:11.468Z,28.40
2019-03-28T06:42:15.448Z,32.53
2019-03-28T06:44:19.281Z,33.23
2019-03-28T06:46:23.156Z,35.07
2019-03-28T06:48:27.113Z,29.37
2019-03-28T06:50:30.941Z,33.63
2019-03-28T06:52:34.730Z,30.57
2019-03-28T06:54:38.533Z,35.20
2019-03-28T06:56:43.422Z,33.67
2019-03-28T06:58:47.511Z,40.17
2019-03-28T07:00:51.419Z,40.57
2019-03-28T07:02:55.330Z,42.07
2019-03-28T07:04:59.168Z,34.50
2019-03-28T07:07:03.069Z,35.87
2019-03-28T07:09:08.634Z,36.33
2019-03-28T07:11:12.484Z,43.23
2019-03-28T07:13:16.471Z,46.03
2019-03-28T07:15:20.601Z,39.00
2019-03-28T07:17:24.642Z,49.00
2019-03-28T07:19:28.727Z,54.83
2019-03-28T07:21:32.586Z,46.40
2019-03-28T07:23:36.538Z,45.40
2019-03-28T07:25:40.451Z,52.47
2019-03-28T07:27:44.268Z,53.50
2019-03-28T07:29:51.201Z,49.10
2019-03-28T07:31:53.692Z,58.57
2019-03-28T07:33:57.537Z,56.87
2019-03-28T07:36:01.434Z,50.70
2019-03-28T07:38:05.273Z,56.10
2019-03-28T07:40:09.798Z,53.13
2019-03-28T07:42:13.651Z,52.10
2019-03-28T07:44:17.618Z,51.73
2019-03-28T07:46:22.056Z,55.67
2019-03-28T07:48:25.843Z,58.17
2019-03-28T07:50:29.787Z,62.17
2019-03-28T07:52:33.715Z,51.83
2019-03-28T07:54:37.736Z,56.53
2019-03-28T07:56:41.852Z,56.83
2019-03-28T07:58:45.767Z,56.50
2019-03-28T08:00:49.772Z,56.27
2019-03-28T08:02:54.611Z,55.10
2019-03-28T08:05:01.371Z,63.83
2019-03-28T08:07:04.579Z,55.73
2019-03-28T08:09:09.979Z,51.33
2019-03-28T08:11:13.858Z,60.17
2019-03-28T08:13:17.725Z,65.70
2019-03-28T08:15:21.571Z,60.00
2019-03-28T08:17:25.368Z,51.30
2019-03-28T08:19:29.442Z,47.20
2019-03-28T08:21:33.258Z,52.70
2019-03-28T08:23:37.174Z,52.83
2019-03-28T08:25:41.586Z,47.83
2019-03-28T08:27:45.873Z,49.90
2019-03-28T08:29:49.926Z,46.13
2019-03-28T08:31:54.877Z,46.40
2019-03-28T08:34:01.738Z,58.20
2019-03-28T08:36:04.542Z,48.23
2019-03-28T08:38:10.217Z,58.57
2019-03-28T08:40:17.252Z,47.83
2019-03-28T08:42:21.219Z,48.70
2019-03-28T08:44:25.152Z,46.17
2019-03-28T08:46:29.043Z,58.13
2019-03-28T08:48:32.929Z,46.93
2019-03-28T08:50:36.809Z,46.50
2019-03-28T08:52:40.588Z,44.67
2019-03-28T08:54:44.830Z,46.60
2019-03-28T08:56:48.728Z,43.87
2019-03-28T08:58:52.665Z,38.03
2019-03-28T09:00:56.515Z,39.10
2019-03-28T09:03:00.385Z,42.70
2019-03-28T09:05:05.281Z,43.67
2019-03-28T09:07:09.248Z,36.13
2019-03-28T09:09:13.152Z,35.47
2019-03-28T09:11:16.932Z,40.90
2019-03-28T09:13:20.898Z,42.77
2019-03-28T09:15:26.192Z,33.40
2019-03-28T09:17:30.057Z,36.60
2019-03-28T09:19:33.960Z,42.93
2019-03-28T09:21:37.820Z,39.63
2019-03-28T09:23:41.823Z,33.93
2019-03-28T09:25:45.634Z,36.63
2019-03-28T09:27:51.678Z,32.07
2019-03-28T09:29:55.291Z,33.10
2019-03-28T09:31:59.437Z,33.70
2019-03-28T09:34:03.409Z,42.77
2019-03-28T09:36:07.310Z,37.90
2019-03-28T09:38:11.286Z,35.57
2019-03-28T09:40:15.196Z,35.43
2019-03-28T09:42:19.133Z,36.90
2019-03-28T09:44:22.965Z,30.07
2019-03-28T09:46:26.826Z,30.50
2019-03-28T09:48:30.894Z,32.63
2019-03-28T09:50:35.021Z,31.80
2019-03-28T09:52:38.863Z,22.90
2019-03-28T09:54:42.821Z,20.80
2019-03-28T09:56:46.611Z,23.47
2019-03-28T09:58:50.544Z,21.27
2019-03-28T10:01:02.584Z,25.43
2019-03-28T10:03:00.584Z,25.13
2019-03-28T10:05:06.219Z,26.67
2019-03-28T10:07:10.285Z,23.03
2019-03-28T10:09:14.233Z,20.70
2019-03-28T10:11:18.204Z,19.70
2019-03-28T10:13:22.144Z,20.50
2019-03-28T10:15:25.939Z,20.03
2019-03-28T10:17:29.851Z,17.27
2019-03-28T10:19:33.829Z,20.10
2019-03-28T10:21:37.761Z,25.10
2019-03-28T10:23:42.663Z,21.40
2019-03-28T10:25:46.630Z,23.07
2019-03-28T10:27:50.585Z,26.10
2019-03-28T10:29:54.415Z,21.97
2019-03-28T10:31:58.300Z,15.90
2019-03-28T10:34:02.325Z,22.10
2019-03-28T10:36:06.234Z,13.73
2019-03-28T10:38:10.291Z,15.50
2019-03-28T10:40:14.298Z,19.00
2019-03-28T10:42:18.125Z,17.97
2019-03-28T10:44:22.233Z,17.00
2019-03-28T10:46:26.099Z,29.97
2019-03-28T10:48:30.220Z,21.27
2019-03-28T10:50:41.677Z,19.97
2019-03-28T10:52:39.673Z,16.00
2019-03-28T10:54:43.664Z,17.90
2019-03-28T10:56:52.143Z,17.47
2019-03-28T10:58:53.241Z,20.20
2019-03-28T11:00:57.145Z,15.70
2019-03-28T11:03:01.056Z,16.10
2019-03-28T11:05:06.066Z,14.10
2019-03-28T11:07:09.968Z,18.37
2019-03-28T11:09:13.882Z,14.30
2019-03-28T11:11:17.856Z,20.23
2019-03-28T11:13:21.676Z,12.47
2019-03-28T11:15:25.663Z,15.93
2019-03-28T11:17:31.246Z,15.63
2019-03-28T11:19:35.242Z,14.17
2019-03-28T11:21:39.086Z,14.90
2019-03-28T11:23:43.045Z,16.53
2019-03-28T11:25:46.945Z,12.90
2019-03-28T11:27:50.852Z,15.50
2019-03-28T11:29:54.930Z,14.53
2019-03-28T11:31:59.054Z,12.50
2019-03-28T11:34:04.411Z,17.03
2019-03-28T11:36:08.213Z,15.90
2019-03-28T11:38:12.110Z,18.70
2019-03-28T11:40:16.602Z,12.10
2019-03-28T11:42:20.506Z,20.70
2019-03-28T11:44:26.406Z,14.97
2019-03-28T11:46:30.102Z,17.03
2019-03-28T11:48:34.035Z,17.80
2019-03-28T11:50:38.310Z,17.60
2019-03-28T11:52:42.829Z,9.17
2019-03-28T11:54:46.880Z,12.97
2019-03-28T11:56:50.760Z,15.97
2019-03-28T11:58:54.629Z,21.00
2019-03-28T12:00:59.445Z,15.00
2019-03-28T12:03:04.396Z,17.33
2019-03-28T12:05:08.537Z,13.83
2019-03-28T12:07:12.444Z,18.40
2019-03-28T12:09:16.361Z,16.30
2019-03-28T12:11:21.572Z,13.73
2019-03-28T12:13:25.489Z,17.13
2019-03-28T12:15:29.425Z,15.10
2019-03-28T12:17:33.289Z,17.60
2019-03-28T12:19:41.259Z,15.60
2019-03-28T12:21:45.258Z,15.10
2019-03-28T12:23:49.207Z,16.57
2019-03-28T12:25:54.539Z,14.90
2019-03-28T12:28:00.505Z,13.03
2019-03-28T12:30:07.251Z,12.10
2019-03-28T12:32:14.291Z,15.17
2019-03-28T12:34:16.636Z,14.90
2019-03-28T12:36:20.558Z,14.53
2019-03-28T12:38:24.480Z,13.93
2019-03-28T12:40:28.807Z,15.97
2019-03-28T12:42:32.741Z,11.23
2019-03-28T12:44:37.224Z,12.77
2019-03-28T12:46:41.242Z,14.37
2019-03-28T12:48:45.998Z,15.30
2019-03-28T12:50:58.663Z,13.80
2019-03-28T12:52:58.313Z,14.50
2019-03-28T12:55:01.649Z,13.90
2019-03-28T12:57:05.524Z,14.03
2019-03-28T12:59:09.474Z,15.00
2019-03-28T13:01:13.398Z,16.63
2019-03-28T13:03:17.322Z,17.70
2019-03-28T13:05:21.203Z,18.07
2019-03-28T13:07:25.585Z,15.30
2019-03-28T13:09:29.685Z,14.47
2019-03-28T13:11:33.778Z,12.50
2019-03-28T13:13:37.647Z,17.10
2019-03-28T13:15:41.607Z,11.80
2019-03-28T13:17:45.507Z,12.70
2019-03-28T13:19:49.452Z,11.90
2019-03-28T13:21:53.579Z,18.00
2019-03-28T13:23:57.484Z,12.80
2019-03-28T13:26:01.676Z,11.00
2019-03-28T13:28:05.739Z,14.80
2019-03-28T13:30:13.630Z,10.23
2019-03-28T13:32:17.835Z,15.47
2019-03-28T13:34:21.806Z,11.20
2019-03-28T13:36:25.908Z,16.20
2019-03-28T13:38:29.842Z,16.50
2019-03-28T13:40:34.092Z,11.20
2019-03-28T13:42:38.795Z,14.13
2019-03-28T13:44:43.126Z,18.73
2019-03-28T13:46:48.018Z,12.20
2019-03-28T13:48:51.563Z,11.40
2019-03-28T13:50:55.212Z,9.80
2019-03-28T13:52:58.965Z,13.67
2019-03-28T13:55:02.547Z,15.60
2019-03-28T13:57:06.129Z,14.00
2019-03-28T13:59:09.860Z,10.93
2019-03-28T14:01:13.627Z,12.37
2019-03-28T14:03:17.279Z,10.70
2019-03-28T14:05:20.999Z,12.07
2019-03-28T14:07:24.703Z,20.90
2019-03-28T14:09:28.533Z,14.90
2019-03-28T14:11:32.154Z,20.13
2019-03-28T14:13:35.809Z,13.00
2019-03-28T14:15:39.467Z,14.93
2019-03-28T14:17:43.080Z,8.07
2019-03-28T14:19:46.752Z,9.23
2019-03-28T14:21:50.418Z,9.50
2019-03-28T14:23:58.072Z,7.97
2019-03-28T14:26:02.256Z,13.53
2019-03-28T14:28:06.317Z,9.60
2019-03-28T14:30:11.651Z,8.47
2019-03-28T14:32:16.598Z,6.27
2019-03-28T14:34:20.761Z,7.27
2019-03-28T14:36:27.133Z,10.23
2019-03-28T14:38:30.697Z,7.20
2019-03-28T14:40:34.289Z,7.80
2019-03-28T14:42:37.972Z,11.17
2019-03-28T14:44:43.344Z,8.20
2019-03-28T14:46:47.348Z,9.97
2019-03-28T14:48:51.287Z,8.13
2019-03-28T14:50:55.463Z,6.93
2019-03-28T14:52:59.172Z,6.83
2019-03-28T14:55:03.793Z,7.00
2019-03-28T14:57:07.532Z,5.47
2019-03-28T14:59:13.343Z,8.30
2019-03-28T15:01:16.955Z,7.63
2019-03-28T15:03:26.363Z,7.60
2019-03-28T15:05:26.307Z,9.13
2019-03-28T15:07:29.914Z,8.97
2019-03-28T15:09:34.060Z,6.33
2019-03-28T15:11:37.885Z,11.37
2019-03-28T15:13:41.635Z,12.17
2019-03-28T15:15:45.650Z,8.40
2019-03-28T15:17:50.624Z,7.90
2019-03-28T15:19:55.046Z,6.47
2019-03-28T15:21:59.734Z,7.83
2019-03-28T15:24:03.522Z,9.57
2019-03-28T15:26:07.462Z,9.07
2019-03-28T15:28:13.175Z,10.70
2019-03-28T15:30:19.044Z,10.30
2019-03-28T15:32:22.904Z,13.83
2019-03-28T15:34:26.565Z,8.83
2019-03-28T15:36:30.252Z,11.57
2019-03-28T15:38:33.953Z,6.40
2019-03-28T15:40:37.643Z,11.20
2019-03-28T15:42:41.417Z,9.90
2019-03-28T15:44:45.077Z,7.13
2019-03-28T15:46:49.006Z,8.93
2019-03-28T15:48:56.038Z,11.07
2019-03-28T15:50:59.754Z,10.27
2019-03-28T15:53:03.432Z,12.00
2019-03-28T15:55:07.638Z,6.60
2019-03-28T15:57:11.557Z,12.43
2019-03-28T15:59:15.209Z,8.23
2019-03-28T16:01:19.620Z,8.53
2019-03-28T16:03:24.732Z,9.07
2019-03-28T16:05:28.378Z,10.27
2019-03-28T16:07:33.390Z,8.80
2019-03-28T16:09:37.237Z,8.97
2019-03-28T16:11:43.893Z,6.93
2019-03-28T16:13:47.551Z,9.47
2019-03-28T16:15:51.629Z,6.63
2019-03-28T16:17:58.313Z,7.80
2019-03-28T16:20:06.449Z,9.17
2019-03-28T16:22:11.609Z,11.17
2019-03-28T16:24:15.703Z,7.13
2019-03-28T16:26:23.552Z,9.40
2019-03-28T16:28:33.378Z,9.43
2019-03-28T16:30:38.304Z,7.37
2019-03-28T16:32:42.012Z,10.30
2019-03-28T16:34:45.776Z,8.23
2019-03-28T16:36:49.808Z,8.50
2019-03-28T16:38:53.506Z,10.23
2019-03-28T16:40:57.870Z,7.50
2019-03-28T16:43:01.814Z,6.67
2019-03-28T16:45:09.237Z,12.67
2019-03-28T16:47:14.247Z,10.47
2019-03-28T16:49:18.265Z,12.90
2019-03-28T16:51:22.079Z,10.80
2019-03-28T16:53:25.830Z,11.77
2019-03-28T16:55:29.839Z,9.43
2019-03-28T16:57:33.644Z,11.00
2019-03-28T16:59:38.145Z,11.07
2019-03-28T17:01:42.488Z,11.17
2019-03-28T17:03:46.696Z,6.93
2019-03-28T17:05:52.991Z,9.00
2019-03-28T17:07:56.736Z,9.40
2019-03-28T17:10:01.623Z,10.47
2019-03-28T17:12:05.814Z,12.30
2019-03-28T17:14:09.498Z,8.43
2019-03-28T17:16:13.193Z,11.33
2019-03-28T17:18:18.886Z,7.73
2019-03-28T17:20:26.276Z,15.53
2019-03-28T17:22:30.271Z,7.53
2019-03-28T17:24:34.257Z,10.40
2019-03-28T17:26:39.211Z,6.37
2019-03-28T17:28:43.909Z,8.43
2019-03-28T17:30:47.593Z,5.30
2019-03-28T17:32:51.721Z,6.07
2019-03-28T17:34:55.324Z,6.77
2019-03-28T17:36:59.516Z,7.07
2019-03-28T17:39:04.968Z,6.47
2019-03-28T17:41:08.871Z,5.30
2019-03-28T17:43:12.583Z,5.33
2019-03-28T17:45:16.434Z,5.87
2019-03-28T17:47:20.298Z,7.43
2019-03-28T17:49:24.159Z,6.13
2019-03-28T17:51:27.892Z,7.43
2019-03-28T17:53:31.974Z,4.77
2019-03-28T17:55:35.720Z,4.87
2019-03-28T17:57:41.835Z,8.80
2019-03-28T17:59:46.036Z,5.23
2019-03-28T18:01:50.472Z,4.40
2019-03-28T18:03:54.206Z,3.77
2019-03-28T18:05:58.774Z,6.13
2019-03-28T18:08:02.652Z,9.60
2019-03-28T18:10:06.700Z,4.40
2019-03-28T18:12:11.743Z,9.10
2019-03-28T18:14:15.589Z,6.30
2019-03-28T18:16:19.332Z,6.30
2019-03-28T18:18:23.057Z,6.23
2019-03-28T18:20:27.053Z,4.77
2019-03-28T18:22:30.863Z,5.10
2019-03-28T18:24:35.284Z,5.50
2019-03-28T18:26:39.297Z,9.10
2019-03-28T18:28:43.168Z,5.87
2019-03-28T18:30:47.077Z,6.70
2019-03-28T18:32:52.992Z,6.33
2019-03-28T18:35:05.307Z,5.40
2019-03-28T18:37:02.442Z,6.60
2019-03-28T18:39:06.768Z,7.17
2019-03-28T18:41:10.364Z,6.43
2019-03-28T18:43:14.187Z,9.43
2019-03-28T18:45:18.590Z,9.80
2019-03-28T18:47:22.548Z,9.37
2019-03-28T18:49:26.259Z,9.13
2019-03-28T18:51:30.000Z,6.77
2019-03-28T18:53:33.699Z,10.40
2019-03-28T18:55:37.980Z,7.40
2019-03-28T18:57:41.824Z,6.80
2019-03-28T18:59:45.659Z,8.53
2019-03-28T19:01:49.380Z,8.90
2019-03-28T19:03:53.033Z,8.23
2019-03-28T19:05:56.743Z,13.83
2019-03-28T19:08:00.993Z,9.20
2019-03-28T19:10:06.775Z,11.27
2019-03-28T19:12:10.967Z,15.07
2019-03-28T19:14:14.908Z,9.90
2019-03-28T19:16:21.626Z,12.70
2019-03-28T19:18:24.222Z,14.77
2019-03-28T19:20:27.955Z,11.43
2019-03-28T19:22:31.572Z,12.50
2019-03-28T19:24:35.254Z,16.53
2019-03-28T19:26:38.905Z,17.27
2019-03-28T19:28:42.594Z,13.50
2019-03-28T19:30:46.255Z,15.43
2019-03-28T19:32:51.106Z,15.67
2019-03-28T19:34:54.822Z,10.97
2019-03-28T19:36:59.083Z,11.53
2019-03-28T19:39:10.581Z,11.70
2019-03-28T19:41:09.156Z,9.70
2019-03-28T19:43:20.392Z,9.23
2019-03-28T19:45:36.054Z,8.20
2019-03-28T19:47:40.219Z,9.30
2019-03-28T19:49:43.870Z,7.63
2019-03-28T19:51:47.894Z,8.77
2019-03-28T19:53:51.579Z,14.60
2019-03-28T19:55:55.241Z,7.67
2019-03-28T19:57:58.909Z,8.97
2019-03-28T20:00:02.720Z,11.37
2019-03-28T20:02:06.463Z,10.70
2019-03-28T20:04:10.048Z,13.70
2019-03-28T20:06:22.162Z,11.80
2019-03-28T20:08:21.905Z,12.23
2019-03-28T20:10:25.662Z,9.23
2019-03-28T20:12:29.752Z,11.50
2019-03-28T20:14:33.343Z,10.90
2019-03-28T20:16:36.985Z,9.23
2019-03-28T20:18:43.033Z,10.07
2019-03-28T20:20:46.306Z,12.83
2019-03-28T20:22:50.564Z,11.60
2019-03-28T20:24:54.299Z,10.60
2019-03-28T20:26:57.963Z,10.40
2019-03-28T20:29:01.606Z,10.87
2019-03-28T20:31:05.348Z,10.10
2019-03-28T20:33:09.081Z,15.97
2019-03-28T20:35:13.087Z,14.30
2019-03-28T20:37:16.705Z,9.47
2019-03-28T20:39:21.561Z,11.57
2019-03-28T20:41:25.155Z,7.47
2019-03-28T20:43:28.904Z,9.30
2019-03-28T20:45:32.674Z,12.43
2019-03-28T20:47:38.285Z,14.87
2019-03-28T20:49:41.873Z,13.03
2019-03-28T20:51:45.688Z,15.80
2019-03-28T20:53:49.379Z,13.33
2019-03-28T20:55:53.928Z,18.10
2019-03-28T20:57:57.724Z,20.50
2019-03-28T21:00:01.300Z,15.67
2019-03-28T21:02:05.187Z,14.43
2019-03-28T21:04:09.153Z,17.77
2019-03-28T21:06:15.487Z,16.83
2019-03-28T21:08:18.631Z,11.90
2019-03-28T21:10:24.349Z,13.90
2019-03-28T21:12:28.001Z,13.00
2019-03-28T21:14:31.705Z,14.67
2019-03-28T21:16:38.122Z,10.40
2019-03-28T21:18:42.174Z,14.90
2019-03-28T21:20:46.463Z,10.03
2019-03-28T21:22:50.228Z,12.20
2019-03-28T21:24:53.879Z,12.17
2019-03-28T21:26:57.621Z,9.70
2019-03-28T21:29:01.252Z,12.50
2019-03-28T21:31:06.337Z,12.10
2019-03-28T21:33:10.004Z,15.30
2019-03-28T21:35:13.732Z,12.03
2019-03-28T21:37:17.321Z,12.03
2019-03-28T21:39:21.080Z,14.83
2019-03-28T21:41:24.645Z,15.20
2019-03-28T21:43:28.359Z,9.13
2019-03-28T21:45:32.016Z,9.63
2019-03-28T21:47:35.775Z,12.20
2019-03-28T21:49:39.419Z,12.47
2019-03-28T21:51:45.762Z,13.80
2019-03-28T21:53:48.713Z,15.07
2019-03-28T21:55:55.515Z,12.60
2019-03-28T21:57:57.732Z,14.17
2019-03-28T22:00:01.389Z,16.80
2019-03-28T22:02:05.130Z,11.80
2019-03-28T22:04:09.082Z,12.40
2019-03-28T22:06:12.966Z,10.33
2019-03-28T22:08:16.681Z,12.30
2019-03-28T22:10:20.766Z,11.30
2019-03-28T22:12:24.550Z,12.00
2019-03-28T22:14:29.435Z,12.93
2019-03-28T22:16:33.080Z,12.70
2019-03-28T22:18:36.793Z,12.73
2019-03-28T22:20:40.553Z,12.70
2019-03-28T22:22:44.282Z,14.13
2019-03-28T22:24:48.258Z,10.20
2019-03-28T22:26:51.995Z,15.10
2019-03-28T22:28:55.833Z,12.80
2019-03-28T22:30:59.495Z,14.23
2019-03-28T22:33:03.261Z,12.53
2019-03-28T22:35:09.008Z,13.47
2019-03-28T22:37:12.917Z,17.27
2019-03-28T22:39:16.593Z,12.20
2019-03-28T22:41:20.176Z,12.33
2019-03-28T22:43:23.848Z,11.97
2019-03-28T22:45:27.500Z,9.40
2019-03-28T22:47:34.820Z,9.33
2019-03-28T22:49:36.438Z,15.93
2019-03-28T22:51:40.221Z,10.30
2019-03-28T22:53:43.961Z,10.73
2019-03-28T22:55:47.640Z,9.63
2019-03-28T22:57:54.099Z,9.80
2019-03-28T22:59:58.025Z,9.93
2019-03-28T23:02:02.935Z,9.40
2019-03-28T23:04:06.701Z,13.00
2019-03-28T23:06:10.487Z,12.37
2019-03-28T23:08:14.272Z,8.40
2019-03-28T23:10:20.833Z,11.40
2019-03-28T23:12:23.273Z,13.13
2019-03-28T23:14:26.949Z,12.77
2019-03-28T23:16:30.620Z,9.40
2019-03-28T23:18:34.289Z,10.53
2019-03-28T23:20:38.021Z,11.53
2019-03-28T23:22:41.725Z,12.13
2019-03-28T23:24:45.505Z,10.50
2019-03-28T23:26:49.113Z,17.30
2019-03-28T23:28:52.809Z,13.03
2019-03-28T23:30:56.529Z,16.50
2019-03-28T23:33:00.115Z,17.77
2019-03-28T23:35:04.090Z,20.37
2019-03-28T23:37:07.720Z,15.47
2019-03-28T23:39:11.778Z,19.60
2019-03-28T23:41:15.514Z,15.03
2019-03-28T23:43:19.169Z,16.10
2019-03-28T23:45:22.905Z,21.23
2019-03-28T23:47:26.459Z,17.77
2019-03-28T23:49:30.212Z,19.33
2019-03-28T23:51:33.796Z,14.33
2019-03-28T23:53:37.500Z,12.00
2019-03-28T23:55:41.238Z,11.10
2019-03-28T23:57:44.827Z,14.03
2019-03-28T23:59:48.440Z,10.27
